createdAt,value
2023-05-10T00:00:18.842Z,98720.16
2023-05-10T00:05:46.901Z,98712.30
2023-05-10T00:11:08.803Z,98711.09
2023-05-10T00:16:30.468Z,98704.06
2023-05-10T00:21:52.376Z,98704.41
2023-05-10T00:27:15.741Z,98699.88
2023-05-10T00:32:37.721Z,98697.56
2023-05-10T00:37:59.463Z,98692.77
2023-05-10T00:43:21.463Z,98689.88
2023-05-10T00:48:44.713Z,98688.16
2023-05-10T00:54:06.402Z,98683.91
2023-05-10T00:59:29.592Z,98680.35
2023-05-10T01:04:53.140Z,98683.44
2023-05-10T01:10:15.960Z,98681.08
2023-05-10T01:15:38.863Z,98681.98
2023-05-10T01:21:16.224Z,98674.88
2023-05-10T01:27:00.193Z,98669.67
2023-05-10T01:32:36.271Z,98667.20
2023-05-10T01:38:09.112Z,98667.06
2023-05-10T01:43:35.472Z,98665.20
2023-05-10T01:48:59.512Z,98665.02
2023-05-10T01:54:23.937Z,98662.83
2023-05-10T01:59:46.699Z,98659.88
2023-05-10T02:05:09.634Z,98659.09
2023-05-10T02:10:33.494Z,98656.28
2023-05-10T02:15:56.295Z,98653.95
2023-05-10T02:21:18.362Z,98650.63
2023-05-10T02:26:40.639Z,98647.11
2023-05-10T02:32:03.860Z,98642.02
2023-05-10T02:37:26.436Z,98639.92
2023-05-10T02:42:50.964Z,98631.67
2023-05-10T02:48:13.482Z,98639.34
2023-05-10T02:53:37.084Z,98639.88
2023-05-10T02:58:58.763Z,98640.05
2023-05-10T03:04:20.645Z,98642.65
2023-05-10T03:09:44.887Z,98643.41
2023-05-10T03:15:28.014Z,98638.10
2023-05-10T03:20:51.938Z,98640.99
2023-05-10T03:26:22.867Z,98637.21
2023-05-10T03:31:45.401Z,98637.35
2023-05-10T03:37:07.330Z,98633.27
2023-05-10T03:42:29.765Z,98626.03
2023-05-10T03:47:52.159Z,98624.17
2023-05-10T03:53:14.313Z,98622.07
2023-05-10T03:58:40.104Z,98625.64
2023-05-10T04:04:01.930Z,98628.36
2023-05-10T04:09:27.970Z,98631.17
2023-05-10T04:14:49.761Z,98632.31
2023-05-10T04:20:12.293Z,98635.59
2023-05-10T04:25:36.610Z,98636.73
2023-05-10T04:31:05.226Z,98635.84
2023-05-10T04:36:28.659Z,98628.27
2023-05-10T04:41:52.898Z,98624.23
2023-05-10T04:47:14.821Z,98628.10
2023-05-10T04:52:41.428Z,98627.25
2023-05-10T04:58:03.914Z,98628.95
2023-05-10T05:03:26.202Z,98629.62
2023-05-10T05:08:50.753Z,98628.63
2023-05-10T05:14:12.611Z,98621.45
2023-05-10T05:19:37.193Z,98620.03
2023-05-10T05:25:04.929Z,98618.24
2023-05-10T05:30:26.726Z,98609.67
2023-05-10T05:35:51.828Z,98615.16
2023-05-10T05:41:13.588Z,98611.80
2023-05-10T05:46:35.016Z,98615.08
2023-05-10T05:52:01.120Z,98617.69
2023-05-10T05:57:24.374Z,98621.55
2023-05-10T06:02:46.510Z,98620.22
2023-05-10T06:08:08.700Z,98612.36
2023-05-10T06:13:33.418Z,98613.42
2023-05-10T06:18:55.504Z,98611.80
2023-05-10T06:24:17.474Z,98615.36
2023-05-10T06:29:39.453Z,98616.96
2023-05-10T06:35:01.188Z,98621.34
2023-05-10T06:40:23.063Z,98617.77
2023-05-10T06:45:45.066Z,98612.65
2023-05-10T06:51:06.972Z,98609.52
2023-05-10T06:56:29.006Z,98607.27
2023-05-10T07:01:50.694Z,98606.17
2023-05-10T07:07:24.184Z,98603.38
2023-05-10T07:12:46.057Z,98596.02
2023-05-10T07:18:08.190Z,98594.75
2023-05-10T07:23:31.225Z,98600.90
2023-05-10T07:28:53.509Z,98600.29
2023-05-10T07:34:15.149Z,98597.92
2023-05-10T07:39:36.767Z,98590.88
2023-05-10T07:44:58.837Z,98591.89
2023-05-10T07:50:22.766Z,98587.05
2023-05-10T07:55:44.496Z,98585.77
2023-05-10T08:01:06.713Z,98580.27
2023-05-10T08:06:31.053Z,98584.23
2023-05-10T08:11:53.139Z,98579.10
2023-05-10T08:17:15.548Z,98576.26
2023-05-10T08:22:37.153Z,98571.34
2023-05-10T08:27:58.742Z,98571.45
2023-05-10T08:33:20.968Z,98573.09
2023-05-10T08:38:42.516Z,98571.84
2023-05-10T08:44:06.328Z,98568.45
2023-05-10T08:49:30.657Z,98568.50
2023-05-10T08:54:53.000Z,98572.48
2023-05-10T09:00:15.434Z,98578.29
2023-05-10T09:05:40.518Z,98575.44
2023-05-10T09:11:52.589Z,98572.76
2023-05-10T09:17:47.943Z,98573.70
2023-05-10T09:23:09.557Z,98573.84
2023-05-10T09:28:35.569Z,98572.57
2023-05-10T09:33:57.424Z,98574.50
2023-05-10T09:39:22.013Z,98577.28
2023-05-10T09:44:44.609Z,98572.13
2023-05-10T09:50:07.761Z,98579.69
2023-05-10T09:55:47.166Z,98575.55
2023-05-10T10:01:13.421Z,98566.76
2023-05-10T10:06:39.108Z,98551.36
2023-05-10T10:12:01.806Z,98550.92
2023-05-10T10:17:26.347Z,98541.60
2023-05-10T10:22:48.609Z,98540.98
2023-05-10T10:28:19.673Z,98546.51
2023-05-10T10:33:57.636Z,98539.97
2023-05-10T10:39:19.964Z,98537.02
2023-05-10T10:44:43.018Z,98530.49
2023-05-10T10:50:06.881Z,98518.92
2023-05-10T10:55:30.846Z,98510.95
2023-05-10T11:01:13.838Z,98515.42
2023-05-10T11:06:37.067Z,98513.10
2023-05-10T11:12:01.209Z,98508.23
2023-05-10T11:17:26.172Z,98505.37
2023-05-10T11:22:56.941Z,98504.25
2023-05-10T11:28:20.951Z,98508.63
2023-05-10T11:39:27.832Z,98489.69
2023-05-10T11:44:49.569Z,98490.85
2023-05-10T11:50:12.521Z,98484.23
2023-05-10T11:55:34.936Z,98487.42
2023-05-10T12:00:56.861Z,98487.48
2023-05-10T12:06:20.095Z,98488.77
2023-05-10T12:11:44.495Z,98483.85
2023-05-10T12:17:06.505Z,98480.90
2023-05-10T12:22:29.396Z,98482.13
2023-05-10T12:27:53.816Z,98482.38
2023-05-10T12:33:18.788Z,98478.74
2023-05-10T12:38:48.696Z,98478.35
2023-05-10T12:44:12.933Z,98472.27
2023-05-10T12:49:35.239Z,98466.35
2023-05-10T12:54:57.036Z,98463.11
2023-05-10T13:00:19.569Z,98466.87
2023-05-10T13:05:41.490Z,98460.94
2023-05-10T13:11:04.223Z,98457.77
2023-05-10T13:16:25.984Z,98450.73
2023-05-10T13:21:48.770Z,98451.35
2023-05-10T13:27:11.216Z,98448.44
2023-05-10T13:32:33.877Z,98442.70
2023-05-10T13:37:58.695Z,98441.98
2023-05-10T13:43:21.287Z,98431.02
2023-05-10T13:48:46.059Z,98425.86
2023-05-10T13:54:07.794Z,98417.73
2023-05-10T13:59:30.227Z,98415.71
2023-05-10T14:04:52.250Z,98408.26
2023-05-10T14:10:14.222Z,98404.01
2023-05-10T14:15:36.116Z,98406.52
2023-05-10T14:20:57.747Z,98410.91
2023-05-10T14:26:19.766Z,98409.51
2023-05-10T14:31:41.724Z,98405.67
2023-05-10T14:37:03.839Z,98400.91
2023-05-10T14:42:25.572Z,98395.92
2023-05-10T14:47:47.509Z,98397.59
2023-05-10T14:54:05.548Z,98397.52
2023-05-10T14:59:46.707Z,98403.72
2023-05-10T15:05:09.390Z,98399.55
2023-05-10T15:10:33.817Z,98397.55
2023-05-10T15:15:56.876Z,98398.00
2023-05-10T15:21:18.728Z,98395.40
2023-05-10T15:26:40.466Z,98392.35
2023-05-10T15:32:03.945Z,98387.60
2023-05-10T15:37:25.575Z,98383.69
2023-05-10T15:42:47.461Z,98382.30
2023-05-10T15:48:09.444Z,98391.77
2023-05-10T15:53:31.573Z,98390.77
2023-05-10T15:58:53.952Z,98390.20
2023-05-10T16:04:15.673Z,98395.11
2023-05-10T16:09:37.539Z,98397.20
2023-05-10T16:14:59.633Z,98398.94
2023-05-10T16:20:21.770Z,98397.16
2023-05-10T16:25:43.597Z,98396.05
2023-05-10T16:31:05.473Z,98400.80
2023-05-10T16:36:29.413Z,98398.35
2023-05-10T16:41:51.492Z,98399.65
2023-05-10T16:47:16.539Z,98399.69
2023-05-10T16:52:38.733Z,98402.48
2023-05-10T16:58:01.101Z,98402.92
2023-05-10T17:03:23.497Z,98402.34
2023-05-10T17:08:45.651Z,98414.77
2023-05-10T17:14:07.479Z,98420.58
2023-05-10T17:19:29.105Z,98423.54
2023-05-10T17:24:51.141Z,98428.58
2023-05-10T17:30:13.588Z,98434.95
2023-05-10T17:35:35.416Z,98435.17
2023-05-10T17:40:57.136Z,98439.03
2023-05-10T17:46:19.196Z,98447.18
2023-05-10T17:51:44.101Z,98450.08
2023-05-10T17:57:06.323Z,98457.35
2023-05-10T18:02:28.100Z,98460.02
2023-05-10T18:07:50.092Z,98464.75
2023-05-10T18:13:12.206Z,98474.42
2023-05-10T18:18:33.772Z,98480.17
2023-05-10T18:23:55.762Z,98485.45
2023-05-10T18:29:17.891Z,98486.77
2023-05-10T18:34:39.530Z,98494.07
2023-05-10T18:40:02.387Z,98499.61
2023-05-10T18:45:24.388Z,98506.16
2023-05-10T18:50:46.015Z,98509.45
2023-05-10T18:56:08.053Z,98514.77
2023-05-10T19:01:29.695Z,98523.18
2023-05-10T19:06:51.613Z,98534.85
2023-05-10T19:12:13.331Z,98534.60
2023-05-10T19:17:37.099Z,98536.55
2023-05-10T19:23:18.670Z,98543.69
2023-05-10T19:28:41.000Z,98543.58
2023-05-10T19:34:05.971Z,98546.73
2023-05-10T19:39:28.172Z,98547.11
2023-05-10T19:44:53.143Z,98549.56
2023-05-10T19:50:16.486Z,98548.04
2023-05-10T19:55:38.327Z,98553.26
2023-05-10T20:01:00.468Z,98553.65
2023-05-10T20:06:22.328Z,98555.94
2023-05-10T20:11:43.872Z,98555.79
2023-05-10T20:17:09.459Z,98557.70
2023-05-10T20:22:31.334Z,98563.43
2023-05-10T20:27:53.257Z,98561.55
2023-05-10T20:33:17.765Z,98556.89
2023-05-10T20:38:39.931Z,98560.86
2023-05-10T20:44:01.659Z,98559.33
2023-05-10T20:49:23.685Z,98558.98
2023-05-10T20:54:45.417Z,98563.64
2023-05-10T21:00:10.667Z,98566.37
2023-05-10T21:05:33.046Z,98566.54
2023-05-10T21:10:54.914Z,98565.83
2023-05-10T21:16:16.870Z,98570.65
2023-05-10T21:21:38.796Z,98567.36
2023-05-10T21:27:01.394Z,98565.95
2023-05-10T21:32:23.566Z,98564.38
2023-05-10T21:37:45.725Z,98564.19
2023-05-10T21:43:08.411Z,98569.16
2023-05-10T21:48:30.996Z,98575.86
2023-05-10T21:53:53.159Z,98573.60
2023-05-10T21:59:14.996Z,98576.83
2023-05-10T22:04:36.822Z,98578.50
2023-05-10T22:09:58.990Z,98576.05
2023-05-10T22:15:20.792Z,98580.48
2023-05-10T22:20:47.370Z,98583.36
2023-05-10T22:26:09.621Z,98584.86
2023-05-10T22:31:31.695Z,98591.20
2023-05-10T22:36:53.974Z,98594.86
2023-05-10T22:42:16.674Z,98598.70
2023-05-10T22:47:38.489Z,98597.02
2023-05-10T22:53:01.024Z,98604.80
2023-05-10T22:58:22.968Z,98606.67
2023-05-10T23:03:44.873Z,98613.86
2023-05-10T23:09:09.874Z,98616.92
2023-05-10T23:14:31.570Z,98623.27
2023-05-10T23:19:53.563Z,98623.55
2023-05-10T23:25:15.811Z,98621.20
2023-05-10T23:30:37.406Z,98620.13
2023-05-10T23:36:01.830Z,98620.44
2023-05-10T23:41:24.918Z,98619.50
2023-05-10T23:46:46.811Z,98624.27
2023-05-10T23:52:08.774Z,98623.70
2023-05-10T23:57:30.363Z,98619.48
